sensor_id;sensor_type;location;lat;lon;timestamp;P1;durP1;ratioP1;P2;durP2;ratioP2
77191;SDS011;66172;48.526;8.078;2024-02-23T00:00:03;3.03;;;0.30;;
77191;SDS011;66172;48.526;8.078;2024-02-23T00:02:33;2.53;;;0.20;;
77191;SDS011;66172;48.526;8.078;2024-02-23T00:04:58;3.47;;;0.30;;
77191;SDS011;66172;48.526;8.078;2024-02-23T00:07:24;2.92;;;0.77;;
77191;SDS011;66172;48.526;8.078;2024-02-23T00:09:50;5.60;;;1.33;;
77191;SDS011;66172;48.526;8.078;2024-02-23T00:12:16;4.03;;;0.30;;
77191;SDS011;66172;48.526;8.078;2024-02-23T00:14:42;3.42;;;0.40;;
77191;SDS011;66172;48.526;8.078;2024-02-23T00:17:08;4.97;;;0.27;;
77191;SDS011;66172;48.526;8.078;2024-02-23T00:19:34;6.22;;;0.43;;
77191;SDS011;66172;48.526;8.078;2024-02-23T00:22:00;3.13;;;0.20;;
77191;SDS011;66172;48.526;8.078;2024-02-23T00:24:26;4.38;;;0.50;;
77191;SDS011;66172;48.526;8.078;2024-02-23T00:26:52;4.33;;;0.30;;
77191;SDS011;66172;48.526;8.078;2024-02-23T00:29:18;2.72;;;0.25;;
77191;SDS011;66172;48.526;8.078;2024-02-23T00:31:44;3.47;;;0.40;;
77191;SDS011;66172;48.526;8.078;2024-02-23T00:34:11;4.13;;;0.30;;
77191;SDS011;66172;48.526;8.078;2024-02-23T00:36:38;4.07;;;0.40;;
77191;SDS011;66172;48.526;8.078;2024-02-23T00:39:06;5.65;;;0.30;;
77191;SDS011;66172;48.526;8.078;2024-02-23T00:41:33;3.63;;;0.30;;
77191;SDS011;66172;48.526;8.078;2024-02-23T00:44:00;3.60;;;0.40;;
77191;SDS011;66172;48.526;8.078;2024-02-23T00:46:26;5.40;;;0.38;;
77191;SDS011;66172;48.526;8.078;2024-02-23T00:48:52;3.07;;;0.50;;
77191;SDS011;66172;48.526;8.078;2024-02-23T00:51:18;2.22;;;0.30;;
77191;SDS011;66172;48.526;8.078;2024-02-23T00:53:44;3.67;;;0.30;;
77191;SDS011;66172;48.526;8.078;2024-02-23T00:56:10;3.30;;;0.30;;
77191;SDS011;66172;48.526;8.078;2024-02-23T00:58:35;3.97;;;0.30;;
77191;SDS011;66172;48.526;8.078;2024-02-23T01:01:01;3.20;;;0.20;;
77191;SDS011;66172;48.526;8.078;2024-02-23T01:03:27;2.78;;;0.30;;
77191;SDS011;66172;48.526;8.078;2024-02-23T01:05:53;2.83;;;0.37;;
77191;SDS011;66172;48.526;8.078;2024-02-23T01:08:19;5.85;;;0.50;;
77191;SDS011;66172;48.526;8.078;2024-02-23T01:10:45;3.63;;;0.40;;
77191;SDS011;66172;48.526;8.078;2024-02-23T01:13:11;3.63;;;0.30;;
77191;SDS011;66172;48.526;8.078;2024-02-23T01:15:37;4.70;;;0.45;;
77191;SDS011;66172;48.526;8.078;2024-02-23T01:18:03;4.85;;;0.30;;
77191;SDS011;66172;48.526;8.078;2024-02-23T01:20:31;2.40;;;0.20;;
77191;SDS011;66172;48.526;8.078;2024-02-23T01:22:57;3.28;;;0.30;;
77191;SDS011;66172;48.526;8.078;2024-02-23T01:25:23;4.50;;;0.40;;
77191;SDS011;66172;48.526;8.078;2024-02-23T01:27:49;4.75;;;0.40;;
77191;SDS011;66172;48.526;8.078;2024-02-23T01:30:15;2.65;;;0.30;;
77191;SDS011;66172;48.526;8.078;2024-02-23T01:32:41;3.70;;;0.60;;
77191;SDS011;66172;48.526;8.078;2024-02-23T01:35:07;3.13;;;0.20;;
77191;SDS011;66172;48.526;8.078;2024-02-23T01:37:34;3.70;;;0.40;;
77191;SDS011;66172;48.526;8.078;2024-02-23T01:40:00;2.97;;;0.40;;
77191;SDS011;66172;48.526;8.078;2024-02-23T01:42:26;3.72;;;0.50;;
77191;SDS011;66172;48.526;8.078;2024-02-23T01:44:52;3.23;;;0.30;;
77191;SDS011;66172;48.526;8.078;2024-02-23T01:47:18;5.28;;;0.40;;
77191;SDS011;66172;48.526;8.078;2024-02-23T01:49:45;3.10;;;0.20;;
77191;SDS011;66172;48.526;8.078;2024-02-23T01:52:12;2.90;;;0.20;;
77191;SDS011;66172;48.526;8.078;2024-02-23T01:54:40;3.20;;;0.30;;
77191;SDS011;66172;48.526;8.078;2024-02-23T01:57:06;4.70;;;0.50;;
77191;SDS011;66172;48.526;8.078;2024-02-23T01:59:34;3.15;;;0.30;;
77191;SDS011;66172;48.526;8.078;2024-02-23T02:02:03;4.43;;;0.30;;
77191;SDS011;66172;48.526;8.078;2024-02-23T02:04:29;4.28;;;0.40;;
77191;SDS011;66172;48.526;8.078;2024-02-23T02:06:56;3.55;;;0.30;;
77191;SDS011;66172;48.526;8.078;2024-02-23T02:09:23;4.07;;;0.33;;
77191;SDS011;66172;48.526;8.078;2024-02-23T02:11:49;3.70;;;0.60;;
77191;SDS011;66172;48.526;8.078;2024-02-23T02:14:16;3.85;;;0.35;;
77191;SDS011;66172;48.526;8.078;2024-02-23T02:16:42;4.05;;;0.30;;
77191;SDS011;66172;48.526;8.078;2024-02-23T02:19:10;3.17;;;0.20;;
77191;SDS011;66172;48.526;8.078;2024-02-23T02:21:36;2.83;;;0.20;;
77191;SDS011;66172;48.526;8.078;2024-02-23T02:24:03;2.80;;;0.40;;
77191;SDS011;66172;48.526;8.078;2024-02-23T02:26:29;2.05;;;0.20;;
77191;SDS011;66172;48.526;8.078;2024-02-23T02:28:56;2.65;;;0.20;;
77191;SDS011;66172;48.526;8.078;2024-02-23T02:31:22;2.67;;;0.40;;
77191;SDS011;66172;48.526;8.078;2024-02-23T02:33:47;3.28;;;0.40;;
77191;SDS011;66172;48.526;8.078;2024-02-23T02:36:13;3.58;;;0.20;;
77191;SDS011;66172;48.526;8.078;2024-02-23T02:38:39;4.13;;;0.47;;
77191;SDS011;66172;48.526;8.078;2024-02-23T02:41:05;3.00;;;0.30;;
77191;SDS011;66172;48.526;8.078;2024-02-23T02:43:31;4.40;;;0.30;;
77191;SDS011;66172;48.526;8.078;2024-02-23T02:45:57;3.10;;;0.30;;
77191;SDS011;66172;48.526;8.078;2024-02-23T02:48:23;4.82;;;0.50;;
77191;SDS011;66172;48.526;8.078;2024-02-23T02:50:50;2.67;;;0.30;;
77191;SDS011;66172;48.526;8.078;2024-02-23T02:53:17;4.22;;;0.38;;
77191;SDS011;66172;48.526;8.078;2024-02-23T02:55:43;3.97;;;0.30;;
77191;SDS011;66172;48.526;8.078;2024-02-23T02:58:12;3.33;;;0.40;;
77191;SDS011;66172;48.526;8.078;2024-02-23T03:00:38;3.85;;;0.40;;
77191;SDS011;66172;48.526;8.078;2024-02-23T03:03:04;3.57;;;0.33;;
77191;SDS011;66172;48.526;8.078;2024-02-23T03:05:31;4.07;;;0.40;;
77191;SDS011;66172;48.526;8.078;2024-02-23T03:07:57;3.03;;;0.20;;
77191;SDS011;66172;48.526;8.078;2024-02-23T03:10:22;2.30;;;0.30;;
77191;SDS011;66172;48.526;8.078;2024-02-23T03:12:48;2.93;;;0.30;;
77191;SDS011;66172;48.526;8.078;2024-02-23T03:15:14;3.20;;;0.50;;
77191;SDS011;66172;48.526;8.078;2024-02-23T03:17:40;3.17;;;0.30;;
77191;SDS011;66172;48.526;8.078;2024-02-23T03:20:06;1.70;;;0.20;;
77191;SDS011;66172;48.526;8.078;2024-02-23T03:22:37;3.33;;;0.38;;
77191;SDS011;66172;48.526;8.078;2024-02-23T03:25:03;2.58;;;0.22;;
77191;SDS011;66172;48.526;8.078;2024-02-23T03:27:34;2.55;;;0.30;;
77191;SDS011;66172;48.526;8.078;2024-02-23T03:30:04;4.60;;;0.40;;
77191;SDS011;66172;48.526;8.078;2024-02-23T03:32:33;3.63;;;0.60;;
77191;SDS011;66172;48.526;8.078;2024-02-23T03:35:05;3.20;;;0.32;;
77191;SDS011;66172;48.526;8.078;2024-02-23T03:37:31;5.15;;;0.55;;
77191;SDS011;66172;48.526;8.078;2024-02-23T03:39:57;4.45;;;0.30;;
77191;SDS011;66172;48.526;8.078;2024-02-23T03:42:25;4.85;;;0.38;;
77191;SDS011;66172;48.526;8.078;2024-02-23T03:44:52;3.13;;;0.30;;
77191;SDS011;66172;48.526;8.078;2024-02-23T03:47:17;3.33;;;0.30;;
77191;SDS011;66172;48.526;8.078;2024-02-23T03:49:43;3.47;;;0.20;;
77191;SDS011;66172;48.526;8.078;2024-02-23T03:52:09;3.20;;;0.40;;
77191;SDS011;66172;48.526;8.078;2024-02-23T03:54:35;3.97;;;0.30;;
77191;SDS011;66172;48.526;8.078;2024-02-23T03:57:01;3.97;;;0.40;;
77191;SDS011;66172;48.526;8.078;2024-02-23T03:59:28;3.88;;;0.40;;
77191;SDS011;66172;48.526;8.078;2024-02-23T04:01:54;2.80;;;0.40;;
77191;SDS011;66172;48.526;8.078;2024-02-23T04:04:20;2.97;;;0.30;;
77191;SDS011;66172;48.526;8.078;2024-02-23T04:06:46;3.28;;;0.40;;
77191;SDS011;66172;48.526;8.078;2024-02-23T04:09:12;3.65;;;0.30;;
77191;SDS011;66172;48.526;8.078;2024-02-23T04:11:38;3.43;;;0.43;;
77191;SDS011;66172;48.526;8.078;2024-02-23T04:14:04;4.45;;;0.40;;
77191;SDS011;66172;48.526;8.078;2024-02-23T04:16:31;3.65;;;0.40;;
77191;SDS011;66172;48.526;8.078;2024-02-23T04:18:57;2.30;;;0.22;;
77191;SDS011;66172;48.526;8.078;2024-02-23T04:21:23;3.90;;;0.77;;
77191;SDS011;66172;48.526;8.078;2024-02-23T04:23:49;3.75;;;0.30;;
77191;SDS011;66172;48.526;8.078;2024-02-23T04:26:15;2.53;;;0.60;;
77191;SDS011;66172;48.526;8.078;2024-02-23T04:28:41;2.90;;;0.40;;
77191;SDS011;66172;48.526;8.078;2024-02-23T04:31:08;4.43;;;0.50;;
77191;SDS011;66172;48.526;8.078;2024-02-23T04:33:34;3.17;;;0.30;;
77191;SDS011;66172;48.526;8.078;2024-02-23T04:36:02;6.75;;;0.65;;
77191;SDS011;66172;48.526;8.078;2024-02-23T04:38:29;4.20;;;0.38;;
77191;SDS011;66172;48.526;8.078;2024-02-23T04:40:55;2.70;;;0.40;;
77191;SDS011;66172;48.526;8.078;2024-02-23T04:43:22;2.47;;;0.30;;
77191;SDS011;66172;48.526;8.078;2024-02-23T04:45:49;5.10;;;0.50;;
77191;SDS011;66172;48.526;8.078;2024-02-23T04:48:14;6.80;;;1.05;;
77191;SDS011;66172;48.526;8.078;2024-02-23T04:50:40;4.55;;;0.40;;
77191;SDS011;66172;48.526;8.078;2024-02-23T04:53:06;4.80;;;0.67;;
77191;SDS011;66172;48.526;8.078;2024-02-23T04:55:33;3.58;;;0.50;;
77191;SDS011;66172;48.526;8.078;2024-02-23T04:57:59;2.55;;;0.40;;
77191;SDS011;66172;48.526;8.078;2024-02-23T05:00:25;4.20;;;0.40;;
77191;SDS011;66172;48.526;8.078;2024-02-23T05:03:01;2.87;;;0.40;;
77191;SDS011;66172;48.526;8.078;2024-02-23T05:05:29;3.53;;;0.47;;
77191;SDS011;66172;48.526;8.078;2024-02-23T05:07:56;2.78;;;0.30;;
77191;SDS011;66172;48.526;8.078;2024-02-23T05:10:21;4.97;;;0.55;;
77191;SDS011;66172;48.526;8.078;2024-02-23T05:12:48;7.33;;;1.10;;
77191;SDS011;66172;48.526;8.078;2024-02-23T05:15:14;3.63;;;0.77;;
77191;SDS011;66172;48.526;8.078;2024-02-23T05:17:40;6.47;;;0.68;;
77191;SDS011;66172;48.526;8.078;2024-02-23T05:20:06;4.13;;;0.60;;
77191;SDS011;66172;48.526;8.078;2024-02-23T05:22:34;4.85;;;0.60;;
77191;SDS011;66172;48.526;8.078;2024-02-23T05:25:00;3.57;;;0.40;;
77191;SDS011;66172;48.526;8.078;2024-02-23T05:27:25;4.90;;;0.60;;
77191;SDS011;66172;48.526;8.078;2024-02-23T05:29:53;4.93;;;0.77;;
77191;SDS011;66172;48.526;8.078;2024-02-23T05:32:19;7.85;;;1.50;;
77191;SDS011;66172;48.526;8.078;2024-02-23T05:34:45;5.17;;;1.13;;
77191;SDS011;66172;48.526;8.078;2024-02-23T05:37:10;5.90;;;1.50;;
77191;SDS011;66172;48.526;8.078;2024-02-23T05:39:36;7.38;;;1.30;;
77191;SDS011;66172;48.526;8.078;2024-02-23T05:42:03;8.38;;;1.60;;
77191;SDS011;66172;48.526;8.078;2024-02-23T05:44:29;6.23;;;1.63;;
77191;SDS011;66172;48.526;8.078;2024-02-23T05:46:55;8.07;;;1.48;;
77191;SDS011;66172;48.526;8.078;2024-02-23T05:49:21;5.85;;;1.27;;
77191;SDS011;66172;48.526;8.078;2024-02-23T05:51:47;6.03;;;1.13;;
77191;SDS011;66172;48.526;8.078;2024-02-23T05:54:13;6.73;;;0.80;;
77191;SDS011;66172;48.526;8.078;2024-02-23T05:56:39;3.28;;;0.60;;
77191;SDS011;66172;48.526;8.078;2024-02-23T05:59:05;3.72;;;0.55;;
77191;SDS011;66172;48.526;8.078;2024-02-23T06:01:32;3.55;;;0.55;;
77191;SDS011;66172;48.526;8.078;2024-02-23T06:03:57;3.47;;;0.60;;
77191;SDS011;66172;48.526;8.078;2024-02-23T06:06:23;4.07;;;0.52;;
77191;SDS011;66172;48.526;8.078;2024-02-23T06:08:49;7.00;;;0.80;;
77191;SDS011;66172;48.526;8.078;2024-02-23T06:11:16;5.00;;;1.20;;
77191;SDS011;66172;48.526;8.078;2024-02-23T06:13:42;5.63;;;1.30;;
77191;SDS011;66172;48.526;8.078;2024-02-23T06:16:11;8.27;;;1.92;;
77191;SDS011;66172;48.526;8.078;2024-02-23T06:18:37;7.43;;;1.95;;
77191;SDS011;66172;48.526;8.078;2024-02-23T06:21:13;17.52;;;6.97;;
77191;SDS011;66172;48.526;8.078;2024-02-23T06:23:40;21.07;;;6.83;;
77191;SDS011;66172;48.526;8.078;2024-02-23T06:26:06;20.23;;;6.20;;
77191;SDS011;66172;48.526;8.078;2024-02-23T06:28:32;9.77;;;3.00;;
77191;SDS011;66172;48.526;8.078;2024-02-23T06:30:58;15.20;;;5.07;;
77191;SDS011;66172;48.526;8.078;2024-02-23T06:33:24;10.33;;;3.10;;
77191;SDS011;66172;48.526;8.078;2024-02-23T06:35:50;9.90;;;2.40;;
77191;SDS011;66172;48.526;8.078;2024-02-23T06:38:17;7.95;;;1.90;;
77191;SDS011;66172;48.526;8.078;2024-02-23T06:40:43;11.82;;;3.40;;
77191;SDS011;66172;48.526;8.078;2024-02-23T06:43:09;9.43;;;2.50;;
77191;SDS011;66172;48.526;8.078;2024-02-23T06:45:35;5.20;;;0.95;;
77191;SDS011;66172;48.526;8.078;2024-02-23T06:48:01;6.05;;;1.00;;
77191;SDS011;66172;48.526;8.078;2024-02-23T06:50:27;4.87;;;1.07;;
77191;SDS011;66172;48.526;8.078;2024-02-23T06:52:53;3.90;;;1.27;;
77191;SDS011;66172;48.526;8.078;2024-02-23T06:55:19;6.30;;;1.55;;
77191;SDS011;66172;48.526;8.078;2024-02-23T06:57:46;5.65;;;0.60;;
77191;SDS011;66172;48.526;8.078;2024-02-23T07:00:12;7.35;;;1.20;;
77191;SDS011;66172;48.526;8.078;2024-02-23T07:02:39;5.93;;;1.40;;
77191;SDS011;66172;48.526;8.078;2024-02-23T07:05:05;11.45;;;3.28;;
77191;SDS011;66172;48.526;8.078;2024-02-23T07:07:31;12.73;;;4.25;;
77191;SDS011;66172;48.526;8.078;2024-02-23T07:09:59;10.20;;;2.65;;
77191;SDS011;66172;48.526;8.078;2024-02-23T07:12:25;10.65;;;2.97;;
77191;SDS011;66172;48.526;8.078;2024-02-23T07:14:53;10.83;;;2.50;;
77191;SDS011;66172;48.526;8.078;2024-02-23T07:17:19;7.95;;;2.08;;
77191;SDS011;66172;48.526;8.078;2024-02-23T07:19:45;7.60;;;1.95;;
77191;SDS011;66172;48.526;8.078;2024-02-23T07:22:11;5.20;;;1.20;;
77191;SDS011;66172;48.526;8.078;2024-02-23T07:24:40;6.43;;;1.10;;
77191;SDS011;66172;48.526;8.078;2024-02-23T07:27:07;6.90;;;1.15;;
77191;SDS011;66172;48.526;8.078;2024-02-23T07:29:33;5.07;;;1.30;;
77191;SDS011;66172;48.526;8.078;2024-02-23T07:31:59;5.13;;;1.10;;
77191;SDS011;66172;48.526;8.078;2024-02-23T07:34:24;7.93;;;1.20;;
77191;SDS011;66172;48.526;8.078;2024-02-23T07:36:53;5.63;;;1.40;;
77191;SDS011;66172;48.526;8.078;2024-02-23T07:39:20;8.73;;;2.22;;
77191;SDS011;66172;48.526;8.078;2024-02-23T07:41:47;6.95;;;1.23;;
77191;SDS011;66172;48.526;8.078;2024-02-23T07:44:13;4.67;;;1.20;;
77191;SDS011;66172;48.526;8.078;2024-02-23T07:46:39;6.53;;;0.73;;
77191;SDS011;66172;48.526;8.078;2024-02-23T07:49:05;5.35;;;0.77;;
77191;SDS011;66172;48.526;8.078;2024-02-23T07:51:35;5.43;;;0.40;;
77191;SDS011;66172;48.526;8.078;2024-02-23T07:54:01;6.67;;;0.60;;
77191;SDS011;66172;48.526;8.078;2024-02-23T07:56:27;5.13;;;0.75;;
77191;SDS011;66172;48.526;8.078;2024-02-23T07:58:53;6.43;;;0.75;;
77191;SDS011;66172;48.526;8.078;2024-02-23T08:01:19;5.38;;;0.82;;
77191;SDS011;66172;48.526;8.078;2024-02-23T08:03:45;5.30;;;0.40;;
77191;SDS011;66172;48.526;8.078;2024-02-23T08:06:11;5.75;;;0.82;;
77191;SDS011;66172;48.526;8.078;2024-02-23T08:08:38;3.25;;;0.20;;
77191;SDS011;66172;48.526;8.078;2024-02-23T08:11:04;5.05;;;0.47;;
77191;SDS011;66172;48.526;8.078;2024-02-23T08:13:30;7.27;;;1.73;;
77191;SDS011;66172;48.526;8.078;2024-02-23T08:15:57;7.35;;;1.40;;
77191;SDS011;66172;48.526;8.078;2024-02-23T08:18:23;6.38;;;1.50;;
77191;SDS011;66172;48.526;8.078;2024-02-23T08:20:49;6.95;;;0.80;;
77191;SDS011;66172;48.526;8.078;2024-02-23T08:23:15;4.78;;;0.65;;
77191;SDS011;66172;48.526;8.078;2024-02-23T08:25:41;6.67;;;0.63;;
77191;SDS011;66172;48.526;8.078;2024-02-23T08:28:07;6.13;;;0.50;;
77191;SDS011;66172;48.526;8.078;2024-02-23T08:30:33;5.45;;;0.73;;
77191;SDS011;66172;48.526;8.078;2024-02-23T08:32:59;4.83;;;1.10;;
77191;SDS011;66172;48.526;8.078;2024-02-23T08:35:25;6.82;;;0.80;;
77191;SDS011;66172;48.526;8.078;2024-02-23T08:37:51;5.80;;;1.00;;
77191;SDS011;66172;48.526;8.078;2024-02-23T08:40:17;4.38;;;0.90;;
77191;SDS011;66172;48.526;8.078;2024-02-23T08:42:43;4.13;;;0.80;;
77191;SDS011;66172;48.526;8.078;2024-02-23T08:45:09;6.65;;;0.50;;
77191;SDS011;66172;48.526;8.078;2024-02-23T08:47:38;7.38;;;0.80;;
77191;SDS011;66172;48.526;8.078;2024-02-23T08:50:04;4.28;;;0.50;;
77191;SDS011;66172;48.526;8.078;2024-02-23T08:52:30;5.53;;;0.73;;
77191;SDS011;66172;48.526;8.078;2024-02-23T08:54:56;5.53;;;1.13;;
77191;SDS011;66172;48.526;8.078;2024-02-23T08:57:22;4.97;;;0.70;;
77191;SDS011;66172;48.526;8.078;2024-02-23T08:59:49;6.63;;;0.60;;
77191;SDS011;66172;48.526;8.078;2024-02-23T09:02:15;7.68;;;1.15;;
77191;SDS011;66172;48.526;8.078;2024-02-23T09:04:41;5.33;;;0.57;;
77191;SDS011;66172;48.526;8.078;2024-02-23T09:07:07;6.25;;;0.38;;
77191;SDS011;66172;48.526;8.078;2024-02-23T09:09:33;7.38;;;0.60;;
77191;SDS011;66172;48.526;8.078;2024-02-23T09:11:59;5.18;;;0.88;;
77191;SDS011;66172;48.526;8.078;2024-02-23T09:14:25;5.37;;;0.60;;
77191;SDS011;66172;48.526;8.078;2024-02-23T09:16:54;5.50;;;0.65;;
77191;SDS011;66172;48.526;8.078;2024-02-23T09:19:20;6.22;;;0.77;;
77191;SDS011;66172;48.526;8.078;2024-02-23T09:21:46;5.00;;;0.60;;
77191;SDS011;66172;48.526;8.078;2024-02-23T09:24:12;7.20;;;1.60;;
77191;SDS011;66172;48.526;8.078;2024-02-23T09:26:38;4.40;;;0.88;;
77191;SDS011;66172;48.526;8.078;2024-02-23T09:29:05;7.40;;;0.80;;
77191;SDS011;66172;48.526;8.078;2024-02-23T09:31:31;7.47;;;0.80;;
77191;SDS011;66172;48.526;8.078;2024-02-23T09:33:57;5.63;;;0.30;;
77191;SDS011;66172;48.526;8.078;2024-02-23T09:36:23;5.07;;;0.63;;
77191;SDS011;66172;48.526;8.078;2024-02-23T09:38:50;6.78;;;0.50;;
77191;SDS011;66172;48.526;8.078;2024-02-23T09:41:19;6.55;;;0.60;;
77191;SDS011;66172;48.526;8.078;2024-02-23T09:43:49;6.72;;;0.70;;
77191;SDS011;66172;48.526;8.078;2024-02-23T09:46:15;6.17;;;0.67;;
77191;SDS011;66172;48.526;8.078;2024-02-23T09:48:42;6.88;;;0.43;;
77191;SDS011;66172;48.526;8.078;2024-02-23T09:51:09;5.60;;;0.63;;
77191;SDS011;66172;48.526;8.078;2024-02-23T09:53:37;4.20;;;0.50;;
77191;SDS011;66172;48.526;8.078;2024-02-23T09:56:04;5.93;;;0.80;;
77191;SDS011;66172;48.526;8.078;2024-02-23T09:58:33;4.37;;;0.50;;
77191;SDS011;66172;48.526;8.078;2024-02-23T10:01:01;5.38;;;0.80;;
77191;SDS011;66172;48.526;8.078;2024-02-23T10:03:29;4.80;;;0.52;;
77191;SDS011;66172;48.526;8.078;2024-02-23T10:05:58;7.03;;;0.63;;
77191;SDS011;66172;48.526;8.078;2024-02-23T10:08:27;8.07;;;1.00;;
77191;SDS011;66172;48.526;8.078;2024-02-23T10:10:54;7.60;;;0.70;;
77191;SDS011;66172;48.526;8.078;2024-02-23T10:13:20;7.53;;;0.85;;
77191;SDS011;66172;48.526;8.078;2024-02-23T10:15:48;8.27;;;0.68;;
77191;SDS011;66172;48.526;8.078;2024-02-23T10:18:13;5.43;;;0.90;;
77191;SDS011;66172;48.526;8.078;2024-02-23T10:20:40;4.78;;;0.85;;
77191;SDS011;66172;48.526;8.078;2024-02-23T10:23:09;5.47;;;0.70;;
77191;SDS011;66172;48.526;8.078;2024-02-23T10:25:36;5.28;;;0.40;;
77191;SDS011;66172;48.526;8.078;2024-02-23T10:28:02;4.53;;;0.82;;
77191;SDS011;66172;48.526;8.078;2024-02-23T10:30:29;6.05;;;0.80;;
77191;SDS011;66172;48.526;8.078;2024-02-23T10:32:55;6.07;;;0.60;;
77191;SDS011;66172;48.526;8.078;2024-02-23T10:35:23;6.23;;;0.80;;
77191;SDS011;66172;48.526;8.078;2024-02-23T10:37:49;6.05;;;0.63;;
77191;SDS011;66172;48.526;8.078;2024-02-23T10:40:18;5.68;;;0.70;;
77191;SDS011;66172;48.526;8.078;2024-02-23T10:42:45;5.40;;;0.55;;
77191;SDS011;66172;48.526;8.078;2024-02-23T10:45:16;4.13;;;0.70;;
77191;SDS011;66172;48.526;8.078;2024-02-23T10:47:43;6.03;;;0.97;;
77191;SDS011;66172;48.526;8.078;2024-02-23T10:50:09;8.02;;;1.30;;
77191;SDS011;66172;48.526;8.078;2024-02-23T10:52:38;7.03;;;0.70;;
77191;SDS011;66172;48.526;8.078;2024-02-23T10:55:05;13.18;;;1.50;;
77191;SDS011;66172;48.526;8.078;2024-02-23T10:57:34;8.25;;;0.70;;
77191;SDS011;66172;48.526;8.078;2024-02-23T11:00:01;7.17;;;1.00;;
77191;SDS011;66172;48.526;8.078;2024-02-23T11:02:30;4.90;;;0.70;;
77191;SDS011;66172;48.526;8.078;2024-02-23T11:05:00;5.13;;;0.88;;
77191;SDS011;66172;48.526;8.078;2024-02-23T11:07:29;5.45;;;0.60;;
77191;SDS011;66172;48.526;8.078;2024-02-23T11:09:58;4.80;;;0.60;;
77191;SDS011;66172;48.526;8.078;2024-02-23T11:12:24;6.03;;;0.80;;
77191;SDS011;66172;48.526;8.078;2024-02-23T11:14:51;5.60;;;0.90;;
77191;SDS011;66172;48.526;8.078;2024-02-23T11:17:23;5.25;;;1.00;;
77191;SDS011;66172;48.526;8.078;2024-02-23T11:19:53;6.15;;;0.82;;
77191;SDS011;66172;48.526;8.078;2024-02-23T11:22:24;6.22;;;0.90;;
77191;SDS011;66172;48.526;8.078;2024-02-23T11:24:51;5.07;;;0.70;;
77191;SDS011;66172;48.526;8.078;2024-02-23T11:27:17;4.75;;;0.60;;
77191;SDS011;66172;48.526;8.078;2024-02-23T11:29:46;6.55;;;0.52;;
77191;SDS011;66172;48.526;8.078;2024-02-23T11:32:17;7.72;;;1.38;;
77191;SDS011;66172;48.526;8.078;2024-02-23T11:34:56;4.35;;;0.70;;
77191;SDS011;66172;48.526;8.078;2024-02-23T11:37:22;4.73;;;0.63;;
77191;SDS011;66172;48.526;8.078;2024-02-23T11:39:48;4.45;;;0.50;;
77191;SDS011;66172;48.526;8.078;2024-02-23T11:42:15;5.93;;;0.70;;
77191;SDS011;66172;48.526;8.078;2024-02-23T11:44:41;4.43;;;0.60;;
77191;SDS011;66172;48.526;8.078;2024-02-23T11:47:07;3.90;;;0.53;;
77191;SDS011;66172;48.526;8.078;2024-02-23T11:49:33;5.22;;;0.68;;
77191;SDS011;66172;48.526;8.078;2024-02-23T11:51:59;3.85;;;0.57;;
77191;SDS011;66172;48.526;8.078;2024-02-23T11:54:25;5.15;;;0.70;;
77191;SDS011;66172;48.526;8.078;2024-02-23T11:56:51;7.10;;;0.70;;
77191;SDS011;66172;48.526;8.078;2024-02-23T11:59:18;4.40;;;0.60;;
77191;SDS011;66172;48.526;8.078;2024-02-23T12:01:45;4.95;;;0.60;;
77191;SDS011;66172;48.526;8.078;2024-02-23T12:04:14;8.13;;;0.70;;
77191;SDS011;66172;48.526;8.078;2024-02-23T12:06:40;5.57;;;1.15;;
77191;SDS011;66172;48.526;8.078;2024-02-23T12:09:07;4.20;;;0.50;;
77191;SDS011;66172;48.526;8.078;2024-02-23T12:11:33;6.40;;;0.70;;
77191;SDS011;66172;48.526;8.078;2024-02-23T12:14:00;5.45;;;0.60;;
77191;SDS011;66172;48.526;8.078;2024-02-23T12:16:28;5.18;;;0.82;;
77191;SDS011;66172;48.526;8.078;2024-02-23T12:18:54;4.83;;;0.60;;
77191;SDS011;66172;48.526;8.078;2024-02-23T12:21:21;5.05;;;0.50;;
77191;SDS011;66172;48.526;8.078;2024-02-23T12:23:49;4.65;;;0.60;;
77191;SDS011;66172;48.526;8.078;2024-02-23T12:26:16;4.13;;;0.68;;
77191;SDS011;66172;48.526;8.078;2024-02-23T12:28:43;6.22;;;0.45;;
77191;SDS011;66172;48.526;8.078;2024-02-23T12:31:10;6.30;;;0.90;;
77191;SDS011;66172;48.526;8.078;2024-02-23T12:33:36;5.07;;;0.50;;
77191;SDS011;66172;48.526;8.078;2024-02-23T12:36:05;4.60;;;0.73;;
77191;SDS011;66172;48.526;8.078;2024-02-23T12:38:32;3.42;;;0.63;;
77191;SDS011;66172;48.526;8.078;2024-02-23T12:40:59;3.67;;;0.60;;
77191;SDS011;66172;48.526;8.078;2024-02-23T12:43:26;5.10;;;0.50;;
77191;SDS011;66172;48.526;8.078;2024-02-23T12:45:52;4.78;;;0.40;;
77191;SDS011;66172;48.526;8.078;2024-02-23T12:48:20;7.30;;;0.85;;
77191;SDS011;66172;48.526;8.078;2024-02-23T12:50:46;4.88;;;0.77;;
77191;SDS011;66172;48.526;8.078;2024-02-23T12:53:29;5.40;;;0.50;;
77191;SDS011;66172;48.526;8.078;2024-02-23T12:56:01;5.67;;;0.50;;
77191;SDS011;66172;48.526;8.078;2024-02-23T12:58:31;6.05;;;0.60;;
77191;SDS011;66172;48.526;8.078;2024-02-23T13:00:57;4.80;;;0.50;;
77191;SDS011;66172;48.526;8.078;2024-02-23T13:03:24;6.95;;;0.40;;
77191;SDS011;66172;48.526;8.078;2024-02-23T13:05:52;4.88;;;0.55;;
77191;SDS011;66172;48.526;8.078;2024-02-23T13:08:19;5.67;;;0.60;;
77191;SDS011;66172;48.526;8.078;2024-02-23T13:10:44;5.53;;;0.60;;
77191;SDS011;66172;48.526;8.078;2024-02-23T13:13:11;3.63;;;0.50;;
77191;SDS011;66172;48.526;8.078;2024-02-23T13:15:38;4.03;;;0.65;;
77191;SDS011;66172;48.526;8.078;2024-02-23T13:18:04;5.80;;;0.70;;
77191;SDS011;66172;48.526;8.078;2024-02-23T13:20:30;4.65;;;0.90;;
77191;SDS011;66172;48.526;8.078;2024-02-23T13:22:56;5.05;;;0.80;;
77191;SDS011;66172;48.526;8.078;2024-02-23T13:25:22;4.55;;;0.60;;
77191;SDS011;66172;48.526;8.078;2024-02-23T13:27:48;6.77;;;0.73;;
77191;SDS011;66172;48.526;8.078;2024-02-23T13:30:14;4.40;;;0.57;;
77191;SDS011;66172;48.526;8.078;2024-02-23T13:32:40;5.00;;;0.45;;
77191;SDS011;66172;48.526;8.078;2024-02-23T13:35:06;5.40;;;1.20;;
77191;SDS011;66172;48.526;8.078;2024-02-23T13:37:32;4.17;;;0.50;;
77191;SDS011;66172;48.526;8.078;2024-02-23T13:39:58;7.03;;;0.63;;
77191;SDS011;66172;48.526;8.078;2024-02-23T13:42:23;7.10;;;0.60;;
77191;SDS011;66172;48.526;8.078;2024-02-23T13:44:49;5.97;;;0.57;;
77191;SDS011;66172;48.526;8.078;2024-02-23T13:47:15;5.63;;;0.53;;
77191;SDS011;66172;48.526;8.078;2024-02-23T13:49:41;4.63;;;0.57;;
77191;SDS011;66172;48.526;8.078;2024-02-23T13:52:07;5.18;;;0.60;;
77191;SDS011;66172;48.526;8.078;2024-02-23T13:54:33;4.03;;;0.30;;
77191;SDS011;66172;48.526;8.078;2024-02-23T13:56:59;4.23;;;0.50;;
77191;SDS011;66172;48.526;8.078;2024-02-23T13:59:25;3.65;;;0.40;;
77191;SDS011;66172;48.526;8.078;2024-02-23T14:01:51;4.32;;;0.40;;
77191;SDS011;66172;48.526;8.078;2024-02-23T14:04:17;4.32;;;0.60;;
77191;SDS011;66172;48.526;8.078;2024-02-23T14:06:43;4.67;;;0.60;;
77191;SDS011;66172;48.526;8.078;2024-02-23T14:09:09;2.90;;;0.40;;
77191;SDS011;66172;48.526;8.078;2024-02-23T14:11:35;3.28;;;0.50;;
77191;SDS011;66172;48.526;8.078;2024-02-23T14:14:01;5.13;;;0.70;;
77191;SDS011;66172;48.526;8.078;2024-02-23T14:16:28;4.40;;;0.70;;
77191;SDS011;66172;48.526;8.078;2024-02-23T14:18:54;5.63;;;0.32;;
77191;SDS011;66172;48.526;8.078;2024-02-23T14:21:20;4.32;;;0.50;;
77191;SDS011;66172;48.526;8.078;2024-02-23T14:23:48;2.83;;;0.30;;
77191;SDS011;66172;48.526;8.078;2024-02-23T14:26:14;3.70;;;0.40;;
77191;SDS011;66172;48.526;8.078;2024-02-23T14:28:40;3.57;;;0.40;;
77191;SDS011;66172;48.526;8.078;2024-02-23T14:31:06;4.00;;;0.45;;
77191;SDS011;66172;48.526;8.078;2024-02-23T14:33:32;3.05;;;0.57;;
77191;SDS011;66172;48.526;8.078;2024-02-23T14:35:58;3.33;;;0.43;;
77191;SDS011;66172;48.526;8.078;2024-02-23T14:38:24;4.70;;;0.30;;
77191;SDS011;66172;48.526;8.078;2024-02-23T14:40:50;3.88;;;0.40;;
77191;SDS011;66172;48.526;8.078;2024-02-23T14:43:16;3.13;;;0.40;;